createdAt,value
2019-01-29T00:01:41.137Z,7.60
2019-01-29T00:04:09.883Z,7.10
2019-01-29T00:06:38.849Z,7.13
2019-01-29T00:09:09.938Z,6.50
2019-01-29T00:11:38.587Z,5.97
2019-01-29T00:14:07.379Z,6.97
2019-01-29T00:16:36.058Z,7.03
2019-01-29T00:19:05.178Z,7.00
2019-01-29T00:21:33.847Z,7.20
2019-01-29T00:24:02.554Z,6.90
2019-01-29T00:26:31.687Z,7.17
2019-01-29T00:29:00.327Z,7.00
2019-01-29T00:31:28.999Z,6.90
2019-01-29T00:33:57.665Z,6.90
2019-01-29T00:36:26.474Z,7.53
2019-01-29T00:38:55.125Z,7.67
2019-01-29T00:41:23.767Z,8.13
2019-01-29T00:43:52.409Z,7.53
2019-01-29T00:46:22.104Z,6.57
2019-01-29T00:48:50.745Z,7.90
2019-01-29T00:51:19.660Z,6.83
2019-01-29T00:53:48.306Z,7.50
2019-01-29T00:56:16.950Z,7.50
2019-01-29T00:58:45.611Z,7.83
2019-01-29T01:01:14.340Z,7.80
2019-01-29T01:03:42.993Z,7.70
2019-01-29T01:06:11.708Z,8.30
2019-01-29T01:08:40.355Z,7.23
2019-01-29T01:11:09.012Z,7.40
2019-01-29T01:13:37.710Z,8.17
2019-01-29T01:16:06.440Z,8.03
2019-01-29T01:18:35.110Z,8.27
2019-01-29T01:21:03.873Z,9.23
2019-01-29T01:23:32.603Z,8.57
2019-01-29T01:26:01.341Z,8.57
2019-01-29T01:28:29.995Z,7.77
2019-01-29T01:30:58.668Z,7.30
2019-01-29T01:33:27.316Z,6.63
2019-01-29T01:35:56.057Z,6.30
2019-01-29T01:38:24.738Z,5.57
2019-01-29T01:41:03.260Z,6.50
2019-01-29T01:43:31.919Z,5.63
2019-01-29T01:46:00.578Z,6.87
2019-01-29T01:48:29.258Z,6.40
2019-01-29T01:50:57.919Z,5.70
2019-01-29T01:53:26.814Z,5.87
2019-01-29T01:55:55.715Z,5.57
2019-01-29T01:58:24.356Z,5.23
2019-01-29T02:00:53.100Z,6.83
2019-01-29T02:03:21.745Z,5.77
2019-01-29T02:05:50.474Z,6.33
2019-01-29T02:08:19.391Z,6.50
2019-01-29T02:10:48.051Z,6.33
2019-01-29T02:13:16.943Z,6.30
2019-01-29T02:15:45.683Z,7.67
2019-01-29T02:18:14.328Z,6.87
2019-01-29T02:20:42.973Z,8.40
2019-01-29T02:23:11.641Z,6.37
2019-01-29T02:25:40.627Z,5.83
2019-01-29T02:28:09.762Z,5.37
2019-01-29T02:30:38.443Z,5.83
2019-01-29T02:33:07.085Z,3.83
2019-01-29T02:35:36.125Z,4.53
2019-01-29T02:38:04.777Z,4.33
2019-01-29T02:40:33.492Z,4.47
2019-01-29T02:43:02.499Z,3.83
2019-01-29T02:45:31.261Z,4.30
2019-01-29T02:48:00.143Z,4.17
2019-01-29T02:50:28.802Z,4.00
2019-01-29T02:52:57.464Z,4.13
2019-01-29T02:55:26.101Z,3.17
2019-01-29T02:57:54.759Z,3.27
2019-01-29T03:00:24.907Z,3.23
2019-01-29T03:02:53.734Z,3.77
2019-01-29T03:05:22.443Z,3.30
2019-01-29T03:07:51.990Z,4.10
2019-01-29T03:10:22.591Z,3.60
2019-01-29T03:12:51.994Z,4.03
2019-01-29T03:15:23.955Z,3.40
2019-01-29T03:17:52.712Z,4.17
2019-01-29T03:20:21.541Z,3.73
2019-01-29T03:22:50.330Z,3.23
2019-01-29T03:25:18.997Z,3.90
2019-01-29T03:27:47.714Z,3.37
2019-01-29T03:30:17.875Z,3.50
2019-01-29T03:32:46.542Z,3.03
2019-01-29T03:35:15.763Z,4.03
2019-01-29T03:37:44.855Z,3.67
2019-01-29T03:40:16.258Z,3.33
2019-01-29T03:42:45.332Z,2.80
2019-01-29T03:45:15.600Z,3.73
2019-01-29T03:47:44.389Z,3.47
2019-01-29T03:50:14.762Z,3.83
2019-01-29T03:52:43.482Z,3.00
2019-01-29T03:55:12.189Z,3.77
2019-01-29T03:57:40.845Z,3.13
2019-01-29T04:00:15.723Z,3.63
2019-01-29T04:02:44.368Z,3.97
2019-01-29T04:05:13.406Z,4.40
2019-01-29T04:07:42.318Z,3.80
2019-01-29T04:10:12.183Z,3.40
2019-01-29T04:12:40.843Z,4.23
2019-01-29T04:15:12.281Z,4.40
2019-01-29T04:17:41.586Z,4.63
2019-01-29T04:20:13.075Z,4.33
2019-01-29T04:22:41.963Z,4.13
2019-01-29T04:25:10.856Z,5.30
2019-01-29T04:27:39.487Z,4.70
2019-01-29T04:30:10.470Z,4.47
2019-01-29T04:32:39.345Z,5.40
2019-01-29T04:35:08.101Z,5.67
2019-01-29T04:37:36.740Z,4.80
2019-01-29T04:40:07.193Z,5.53
2019-01-29T04:42:35.820Z,5.80
2019-01-29T04:45:06.255Z,6.67
2019-01-29T04:47:34.901Z,6.20
2019-01-29T04:50:04.296Z,6.47
2019-01-29T04:52:33.229Z,5.70
2019-01-29T04:55:02.201Z,6.13
2019-01-29T04:57:30.840Z,6.60
2019-01-29T04:59:59.495Z,6.03
2019-01-29T05:02:28.137Z,5.87
2019-01-29T05:04:56.866Z,5.87
2019-01-29T05:07:25.843Z,6.37
2019-01-29T05:09:54.482Z,5.17
2019-01-29T05:12:23.129Z,6.00
2019-01-29T05:14:52.106Z,5.63
2019-01-29T05:17:21.007Z,6.20
2019-01-29T05:19:49.915Z,6.47
2019-01-29T05:22:18.875Z,6.03
2019-01-29T05:24:47.551Z,5.20
2019-01-29T05:27:16.567Z,6.07
2019-01-29T05:29:45.220Z,5.77
2019-01-29T05:32:13.849Z,5.97
2019-01-29T05:34:42.520Z,5.20
2019-01-29T05:37:11.191Z,6.13
2019-01-29T05:39:39.838Z,5.33
2019-01-29T05:42:08.462Z,5.57
2019-01-29T05:44:37.191Z,5.37
2019-01-29T05:47:05.854Z,5.50
2019-01-29T05:49:34.534Z,5.77
2019-01-29T05:52:03.194Z,5.20
2019-01-29T05:54:31.873Z,5.10
2019-01-29T05:57:00.896Z,5.10
2019-01-29T05:59:29.588Z,5.93
2019-01-29T06:01:58.259Z,5.73
2019-01-29T06:04:27.266Z,4.63
2019-01-29T06:06:57.479Z,5.13
2019-01-29T06:09:26.128Z,4.53
2019-01-29T06:11:54.822Z,5.90
2019-01-29T06:14:23.596Z,4.97
2019-01-29T06:16:52.333Z,5.03
2019-01-29T06:19:21.035Z,4.47
2019-01-29T06:21:49.719Z,4.30
2019-01-29T06:24:25.597Z,4.80
2019-01-29T06:26:48.827Z,4.60
2019-01-29T06:29:23.332Z,4.53
2019-01-29T06:31:56.616Z,3.93
2019-01-29T06:34:25.353Z,4.60
2019-01-29T06:36:53.990Z,5.20
2019-01-29T06:39:22.651Z,4.60
2019-01-29T06:41:51.374Z,4.30
2019-01-29T06:44:20.345Z,4.10
2019-01-29T06:46:49.003Z,4.67
2019-01-29T06:49:17.664Z,4.03
2019-01-29T06:51:46.676Z,5.17
2019-01-29T06:54:15.300Z,4.60
2019-01-29T06:56:44.173Z,3.70
2019-01-29T06:59:12.832Z,4.30
2019-01-29T07:01:41.518Z,3.93
2019-01-29T07:04:10.183Z,4.63
2019-01-29T07:06:39.278Z,4.20
2019-01-29T07:09:09.323Z,3.13
2019-01-29T07:11:38.817Z,4.70
2019-01-29T07:14:08.014Z,4.03
2019-01-29T07:17:08.376Z,3.40
2019-01-29T07:19:40.356Z,4.23
2019-01-29T07:22:08.993Z,4.03
2019-01-29T07:24:42.745Z,3.90
2019-01-29T07:27:08.125Z,3.10
2019-01-29T07:29:36.852Z,3.20
2019-01-29T07:32:05.984Z,3.37
2019-01-29T07:34:34.612Z,3.27
2019-01-29T07:37:03.252Z,3.23
2019-01-29T07:39:31.895Z,4.30
2019-01-29T07:42:00.532Z,2.90
2019-01-29T07:44:29.251Z,4.30
2019-01-29T07:46:58.006Z,3.50
2019-01-29T07:49:26.958Z,3.53
2019-01-29T07:51:55.615Z,3.83
2019-01-29T07:54:33.062Z,3.87
2019-01-29T07:56:55.298Z,3.40
2019-01-29T07:59:32.399Z,3.67
2019-01-29T08:01:54.379Z,3.70
2019-01-29T08:04:23.037Z,4.23
2019-01-29T08:06:51.990Z,4.33
2019-01-29T08:09:20.986Z,4.20
2019-01-29T08:11:49.646Z,4.33
2019-01-29T08:14:18.348Z,4.80
2019-01-29T08:16:46.998Z,3.50
2019-01-29T08:19:15.950Z,3.67
2019-01-29T08:21:44.610Z,3.90
2019-01-29T08:24:13.314Z,4.67
2019-01-29T08:26:42.026Z,4.60
2019-01-29T08:29:10.756Z,4.33
2019-01-29T08:31:39.625Z,3.40
2019-01-29T08:34:08.263Z,3.90
2019-01-29T08:36:36.916Z,4.37
2019-01-29T08:39:08.360Z,5.10
2019-01-29T08:41:37.112Z,4.90
2019-01-29T08:44:06.899Z,5.00
2019-01-29T08:46:35.937Z,4.30
2019-01-29T08:49:05.209Z,4.27
2019-01-29T08:51:33.904Z,5.57
2019-01-29T08:54:02.683Z,4.27
2019-01-29T08:56:31.375Z,3.90
2019-01-29T08:59:00.083Z,4.03
2019-01-29T09:01:28.744Z,4.50
2019-01-29T09:03:57.508Z,3.50
2019-01-29T09:06:26.275Z,4.07
2019-01-29T09:08:54.992Z,3.43
2019-01-29T09:11:23.724Z,3.40
2019-01-29T09:13:52.692Z,3.70
2019-01-29T09:16:21.367Z,3.30
2019-01-29T09:18:49.993Z,4.00
2019-01-29T09:21:18.637Z,3.93
2019-01-29T09:23:47.275Z,4.07
2019-01-29T09:26:16.224Z,4.37
2019-01-29T09:28:44.905Z,4.20
2019-01-29T09:31:13.571Z,3.70
2019-01-29T09:33:42.193Z,3.80
2019-01-29T09:36:10.955Z,3.73
2019-01-29T09:38:39.604Z,3.23
2019-01-29T09:41:08.548Z,4.17
2019-01-29T09:43:37.203Z,3.40
2019-01-29T09:46:06.155Z,3.63
2019-01-29T09:48:34.850Z,3.40
2019-01-29T09:51:03.798Z,3.20
2019-01-29T09:53:32.439Z,3.70
2019-01-29T09:56:01.380Z,3.87
2019-01-29T09:58:30.573Z,3.70
2019-01-29T10:00:59.216Z,3.90
2019-01-29T10:03:28.001Z,4.30
2019-01-29T10:05:56.642Z,3.90
2019-01-29T10:08:25.320Z,4.20
2019-01-29T10:10:53.970Z,3.17
2019-01-29T10:13:22.850Z,3.60
2019-01-29T10:15:51.503Z,3.93
2019-01-29T10:18:20.147Z,3.27
2019-01-29T10:20:48.895Z,3.30
2019-01-29T10:23:17.975Z,3.40
2019-01-29T10:25:46.604Z,3.87
2019-01-29T10:28:15.280Z,3.57
2019-01-29T10:30:44.218Z,4.20
2019-01-29T10:33:12.949Z,4.10
2019-01-29T10:35:41.576Z,3.37
2019-01-29T10:38:10.210Z,3.73
2019-01-29T10:40:38.871Z,3.43
2019-01-29T10:43:07.689Z,4.10
2019-01-29T10:45:36.516Z,3.37
2019-01-29T10:48:05.302Z,3.13
2019-01-29T10:50:34.090Z,3.27
2019-01-29T10:53:02.742Z,3.37
2019-01-29T10:55:31.393Z,3.10
2019-01-29T10:58:00.129Z,3.67
2019-01-29T11:00:34.894Z,3.67
2019-01-29T11:03:04.018Z,3.17
2019-01-29T11:05:33.148Z,4.20
2019-01-29T11:08:02.214Z,3.27
2019-01-29T11:10:30.955Z,3.57
2019-01-29T11:12:59.681Z,2.60
2019-01-29T11:15:34.275Z,2.90
2019-01-29T11:18:03.528Z,3.17
2019-01-29T11:20:32.393Z,2.93
2019-01-29T11:23:01.033Z,3.13
2019-01-29T11:25:30.066Z,3.37
2019-01-29T11:27:59.080Z,4.20
2019-01-29T11:30:29.326Z,3.20
2019-01-29T11:32:58.059Z,2.77
2019-01-29T11:35:27.076Z,3.60
2019-01-29T11:37:55.760Z,2.93
2019-01-29T11:40:25.863Z,3.80
2019-01-29T11:42:54.646Z,2.40
2019-01-29T11:45:28.983Z,3.87
2019-01-29T11:47:57.725Z,3.00
2019-01-29T11:50:26.441Z,3.87
2019-01-29T11:52:55.092Z,3.00
2019-01-29T11:55:23.798Z,3.90
2019-01-29T11:57:52.505Z,3.53
2019-01-29T12:00:30.523Z,3.57
2019-01-29T12:02:59.157Z,3.60
2019-01-29T12:05:27.839Z,4.20
2019-01-29T12:07:56.504Z,3.53
2019-01-29T12:10:25.511Z,3.60
2019-01-29T12:12:54.148Z,4.20
2019-01-29T12:15:22.943Z,4.20
2019-01-29T12:17:51.652Z,4.30
2019-01-29T12:20:20.550Z,4.67
2019-01-29T12:22:49.324Z,4.27
2019-01-29T12:25:18.141Z,4.27
2019-01-29T12:27:47.107Z,4.40
2019-01-29T12:30:18.538Z,3.90
2019-01-29T12:32:47.649Z,4.37
2019-01-29T12:35:16.371Z,4.10
2019-01-29T12:37:45.082Z,3.57
2019-01-29T12:40:13.955Z,3.67
2019-01-29T12:42:42.679Z,3.90
2019-01-29T12:45:11.812Z,3.90
2019-01-29T12:47:40.607Z,3.27
2019-01-29T12:50:13.339Z,4.37
2019-01-29T12:53:03.921Z,3.17
2019-01-29T12:55:33.272Z,2.83
2019-01-29T12:58:01.911Z,3.27
2019-01-29T13:00:35.182Z,2.90
2019-01-29T13:03:03.910Z,3.00
2019-01-29T13:05:32.864Z,3.13
2019-01-29T13:08:01.684Z,3.30
2019-01-29T13:10:30.474Z,3.60
2019-01-29T13:12:59.115Z,2.90
2019-01-29T13:15:28.621Z,3.80
2019-01-29T13:17:57.526Z,2.57
2019-01-29T13:20:26.307Z,3.03
2019-01-29T13:22:54.970Z,3.03
2019-01-29T13:25:24.067Z,3.33
2019-01-29T13:27:52.726Z,3.30
2019-01-29T13:30:24.546Z,3.47
2019-01-29T13:32:53.606Z,3.93
2019-01-29T13:35:23.888Z,3.10
2019-01-29T13:37:52.919Z,2.63
2019-01-29T13:40:21.846Z,2.93
2019-01-29T13:42:50.907Z,3.50
2019-01-29T13:45:19.618Z,2.90
2019-01-29T13:47:48.257Z,3.00
2019-01-29T13:50:20.454Z,3.07
2019-01-29T13:52:49.370Z,2.73
2019-01-29T13:55:18.494Z,2.47
2019-01-29T13:57:47.530Z,2.77
2019-01-29T14:00:25.131Z,2.70
2019-01-29T14:02:53.898Z,3.20
2019-01-29T14:05:22.606Z,2.93
2019-01-29T14:07:51.600Z,2.40
2019-01-29T14:10:20.302Z,3.40
2019-01-29T14:12:49.280Z,2.93
2019-01-29T14:15:24.418Z,2.80
2019-01-29T14:17:53.143Z,2.60
2019-01-29T14:20:21.866Z,2.57
2019-01-29T14:22:50.570Z,3.13
2019-01-29T14:25:19.217Z,2.40
2019-01-29T14:27:48.255Z,2.20
2019-01-29T14:30:18.561Z,2.63
2019-01-29T14:32:47.497Z,2.60
2019-01-29T14:35:16.791Z,2.37
2019-01-29T14:38:45.335Z,2.00
2019-01-29T14:41:14.951Z,2.63
2019-01-29T14:43:47.007Z,2.07
2019-01-29T14:46:15.734Z,2.63
2019-01-29T14:48:44.409Z,1.90
2019-01-29T14:51:13.123Z,2.67
2019-01-29T14:53:42.051Z,2.53
2019-01-29T14:56:10.769Z,2.60
2019-01-29T14:58:39.434Z,1.93
2019-01-29T15:01:08.301Z,2.53
2019-01-29T15:03:36.927Z,2.33
2019-01-29T15:06:06.152Z,2.70
2019-01-29T15:08:34.901Z,2.40
2019-01-29T15:11:03.644Z,2.40
2019-01-29T15:13:32.287Z,2.33
2019-01-29T15:16:11.041Z,2.17
2019-01-29T15:18:44.386Z,2.87
2019-01-29T15:21:13.087Z,2.83
2019-01-29T15:23:41.740Z,3.30
2019-01-29T15:26:29.677Z,2.90
2019-01-29T15:28:58.306Z,2.87
2019-01-29T15:31:27.035Z,2.80
2019-01-29T15:33:55.960Z,2.87
2019-01-29T15:36:24.934Z,2.93
2019-01-29T15:38:53.677Z,3.00
2019-01-29T15:41:28.169Z,2.63
2019-01-29T15:43:56.897Z,2.70
2019-01-29T15:46:25.642Z,2.97
2019-01-29T15:48:54.701Z,3.23
2019-01-29T15:51:23.353Z,3.10
2019-01-29T15:53:51.999Z,3.00
2019-01-29T15:56:20.631Z,4.00
2019-01-29T15:58:49.727Z,3.53
2019-01-29T16:01:18.410Z,3.47
2019-01-29T16:03:47.071Z,4.40
2019-01-29T16:06:15.729Z,4.83
2019-01-29T16:08:44.371Z,4.10
2019-01-29T16:11:13.182Z,4.63
2019-01-29T16:13:42.392Z,4.23
2019-01-29T16:16:11.122Z,4.13
2019-01-29T16:18:39.799Z,4.33
2019-01-29T16:21:08.547Z,4.90
2019-01-29T16:23:37.231Z,4.97
2019-01-29T16:26:06.072Z,4.07
2019-01-29T16:28:34.723Z,4.50
2019-01-29T16:31:06.287Z,4.63
2019-01-29T16:33:34.928Z,4.23
2019-01-29T16:36:03.960Z,4.10
2019-01-29T16:38:32.641Z,4.20
2019-01-29T16:41:01.282Z,4.50
2019-01-29T16:43:30.311Z,4.60
2019-01-29T16:45:59.035Z,4.70
2019-01-29T16:48:27.759Z,4.90
2019-01-29T16:50:56.658Z,4.40
2019-01-29T16:53:25.365Z,4.87
2019-01-29T16:55:54.419Z,5.13
2019-01-29T16:58:23.429Z,4.57
2019-01-29T17:00:52.055Z,5.00
2019-01-29T17:03:20.711Z,5.33
2019-01-29T17:05:49.401Z,5.20
2019-01-29T17:08:18.167Z,4.73
2019-01-29T17:10:47.168Z,5.63
2019-01-29T17:13:15.874Z,4.37
2019-01-29T17:15:45.151Z,5.70
2019-01-29T17:18:13.983Z,5.60
2019-01-29T17:20:42.663Z,5.00
2019-01-29T17:23:11.733Z,4.73
2019-01-29T17:25:40.824Z,5.10
2019-01-29T17:28:09.547Z,4.80
2019-01-29T17:30:40.230Z,5.53
2019-01-29T17:33:09.347Z,5.43
2019-01-29T17:35:39.710Z,4.83
2019-01-29T17:38:08.634Z,5.20
2019-01-29T17:40:37.341Z,5.10
2019-01-29T17:43:06.810Z,5.30
2019-01-29T17:45:38.194Z,5.70
2019-01-29T17:48:07.144Z,5.07
2019-01-29T17:50:37.287Z,4.93
2019-01-29T17:53:06.027Z,5.03
2019-01-29T17:55:36.844Z,4.53
2019-01-29T17:58:06.354Z,5.53
2019-01-29T18:00:35.835Z,5.67
2019-01-29T18:03:05.774Z,5.40
2019-01-29T18:05:34.907Z,5.17
2019-01-29T18:08:04.627Z,5.70
2019-01-29T18:10:33.450Z,4.73
2019-01-29T18:13:02.247Z,4.50
2019-01-29T18:15:31.126Z,4.93
2019-01-29T18:17:59.887Z,5.17
2019-01-29T18:20:28.610Z,5.30
2019-01-29T18:22:57.322Z,5.80
2019-01-29T18:25:26.527Z,4.73
2019-01-29T18:28:01.272Z,4.50
2019-01-29T18:30:28.496Z,4.70
2019-01-29T18:32:57.200Z,5.67
2019-01-29T18:35:26.510Z,5.03
2019-01-29T18:37:55.326Z,5.23
2019-01-29T18:40:36.186Z,5.37
2019-01-29T18:43:11.156Z,5.00
2019-01-29T18:45:40.023Z,5.93
2019-01-29T18:48:09.050Z,5.67
2019-01-29T18:50:38.808Z,5.33
2019-01-29T18:53:07.491Z,4.90
2019-01-29T18:55:36.287Z,6.20
2019-01-29T18:58:11.650Z,5.57
2019-01-29T19:00:35.718Z,5.53
2019-01-29T19:03:05.057Z,5.43
2019-01-29T19:05:33.793Z,4.83
2019-01-29T19:08:02.887Z,4.80
2019-01-29T19:10:31.779Z,4.73
2019-01-29T19:13:00.568Z,5.40
2019-01-29T19:15:29.271Z,5.70
2019-01-29T19:17:58.189Z,5.17
2019-01-29T19:20:32.079Z,4.53
2019-01-29T19:23:00.766Z,5.43
2019-01-29T19:25:29.708Z,5.27
2019-01-29T19:28:01.503Z,4.57
2019-01-29T19:30:31.920Z,4.53
2019-01-29T19:33:00.680Z,5.73
2019-01-29T19:35:29.647Z,4.77
2019-01-29T19:37:58.343Z,6.10
2019-01-29T19:40:27.198Z,5.40
2019-01-29T19:42:56.478Z,5.70
2019-01-29T19:45:27.485Z,5.70
2019-01-29T19:47:57.514Z,5.87
2019-01-29T19:50:27.242Z,5.07
2019-01-29T19:52:56.323Z,5.53
2019-01-29T19:55:25.978Z,5.13
2019-01-29T19:57:54.965Z,5.77
2019-01-29T20:00:29.641Z,5.43
2019-01-29T20:02:58.646Z,5.13
2019-01-29T20:05:27.528Z,6.00
2019-01-29T20:07:56.758Z,5.33
2019-01-29T20:10:25.502Z,4.40
2019-01-29T20:12:54.298Z,5.07
2019-01-29T20:15:23.047Z,4.40
2019-01-29T20:17:52.928Z,4.37
2019-01-29T20:20:24.500Z,3.80
2019-01-29T20:22:53.252Z,4.27
2019-01-29T20:25:22.575Z,5.43
2019-01-29T20:27:53.092Z,5.53
2019-01-29T20:30:24.922Z,4.87
2019-01-29T20:32:53.908Z,4.53
2019-01-29T20:35:22.874Z,5.40
2019-01-29T20:37:51.513Z,4.60
2019-01-29T20:40:20.619Z,4.30
2019-01-29T20:42:49.257Z,4.30
2019-01-29T20:45:18.106Z,4.90
2019-01-29T20:47:46.753Z,6.27
2019-01-29T20:50:18.287Z,4.80
2019-01-29T20:52:47.063Z,4.93
2019-01-29T20:55:15.720Z,5.77
2019-01-29T20:57:44.401Z,5.07
2019-01-29T21:00:22.064Z,4.77
2019-01-29T21:02:51.211Z,5.40
2019-01-29T21:05:20.043Z,4.33
2019-01-29T21:07:48.707Z,4.50
2019-01-29T21:10:19.112Z,5.30
2019-01-29T21:12:47.857Z,4.63
2019-01-29T21:15:17.972Z,4.13
2019-01-29T21:17:47.218Z,5.20
2019-01-29T21:20:18.011Z,4.40
2019-01-29T21:22:46.677Z,5.17
2019-01-29T21:25:15.536Z,4.37
2019-01-29T21:27:44.709Z,4.70
2019-01-29T21:30:36.719Z,4.33
2019-01-29T21:33:05.480Z,5.00
2019-01-29T21:35:34.131Z,4.03
2019-01-29T21:38:03.115Z,5.53
2019-01-29T21:40:32.095Z,4.27
2019-01-29T21:43:00.819Z,4.43
2019-01-29T21:45:29.564Z,4.27
2019-01-29T21:48:00.476Z,5.00
2019-01-29T21:50:30.547Z,4.17
2019-01-29T21:52:59.287Z,3.80
2019-01-29T21:57:10.522Z,4.43
2019-01-29T21:59:39.409Z,3.60
2019-01-29T22:02:08.432Z,4.77
2019-01-29T22:04:37.170Z,4.27
2019-01-29T22:07:06.132Z,3.93
2019-01-29T22:09:35.241Z,3.93
2019-01-29T22:12:04.298Z,3.77
2019-01-29T22:14:33.771Z,3.80
2019-01-29T22:17:02.483Z,5.03
2019-01-29T22:19:31.182Z,3.97
2019-01-29T22:21:59.839Z,3.83
2019-01-29T22:24:28.515Z,4.80
2019-01-29T22:26:57.220Z,4.73
2019-01-29T22:29:25.965Z,4.87
2019-01-29T22:31:55.034Z,3.93
2019-01-29T22:34:23.702Z,4.23
2019-01-29T22:36:52.604Z,4.27
2019-01-29T22:39:21.267Z,4.93
2019-01-29T22:41:49.927Z,4.80
2019-01-29T22:44:18.926Z,5.00
2019-01-29T22:46:47.567Z,5.53
2019-01-29T22:49:16.233Z,4.57
2019-01-29T22:51:45.259Z,5.33
2019-01-29T22:54:13.907Z,5.33
2019-01-29T22:56:42.803Z,5.90
2019-01-29T22:59:11.624Z,5.10
2019-01-29T23:01:42.563Z,5.17
2019-01-29T23:04:19.718Z,5.00
2019-01-29T23:06:52.067Z,5.43
2019-01-29T23:09:20.714Z,4.77
2019-01-29T23:11:49.384Z,5.80
2019-01-29T23:14:18.218Z,5.87
2019-01-29T23:16:47.026Z,5.60
2019-01-29T23:19:15.687Z,5.30
2019-01-29T23:21:44.406Z,6.17
2019-01-29T23:24:13.379Z,5.77
2019-01-29T23:26:42.284Z,5.47
2019-01-29T23:29:11.067Z,5.83
2019-01-29T23:31:39.732Z,5.93
2019-01-29T23:34:08.494Z,5.43
2019-01-29T23:36:37.138Z,5.17
2019-01-29T23:39:08.490Z,4.97
2019-01-29T23:41:37.138Z,6.00
2019-01-29T23:44:06.399Z,5.63
2019-01-29T23:46:35.144Z,5.40
2019-01-29T23:49:03.962Z,6.20
2019-01-29T23:51:32.685Z,6.13
2019-01-29T23:54:01.323Z,5.90
2019-01-29T23:56:30.030Z,6.33
2019-01-29T23:58:58.776Z,5.87
